createdAt,value
2022-11-29T00:03:17.248Z,31.73
2022-11-29T00:08:25.523Z,30.63
2022-11-29T00:13:33.650Z,29.50
2022-11-29T00:18:41.409Z,30.33
2022-11-29T00:23:49.159Z,30.63
2022-11-29T00:28:58.516Z,27.57
2022-11-29T00:34:07.908Z,28.97
2022-11-29T00:39:16.585Z,28.37
2022-11-29T00:44:24.496Z,27.67
2022-11-29T00:49:32.529Z,27.20
2022-11-29T00:54:40.311Z,26.63
2022-11-29T00:59:48.929Z,24.20
2022-11-29T01:04:56.991Z,23.33
2022-11-29T01:10:05.604Z,25.47
2022-11-29T01:15:13.564Z,24.03
2022-11-29T01:20:21.085Z,25.20
2022-11-29T01:25:29.542Z,23.90
2022-11-29T01:30:40.339Z,25.37
2022-11-29T01:35:55.369Z,23.63
2022-11-29T01:41:11.598Z,24.13
2022-11-29T01:46:19.284Z,24.93
2022-11-29T01:51:28.747Z,22.63
2022-11-29T01:56:36.601Z,22.93
2022-11-29T02:01:44.413Z,24.77
2022-11-29T02:06:52.137Z,24.20
2022-11-29T02:12:37.731Z,24.70
2022-11-29T02:18:05.325Z,22.03
2022-11-29T02:29:07.008Z,23.10
2022-11-29T02:34:30.948Z,25.00
2022-11-29T02:39:42.982Z,20.13
2022-11-29T02:45:13.399Z,21.47
2022-11-29T02:50:37.957Z,20.90
2022-11-29T02:55:52.602Z,21.97
2022-11-29T03:01:03.560Z,21.97
2022-11-29T03:06:17.295Z,21.03
2022-11-29T03:11:44.987Z,21.73
2022-11-29T03:17:08.703Z,21.43
2022-11-29T03:22:22.619Z,20.43
2022-11-29T03:27:33.620Z,22.27
2022-11-29T03:32:47.542Z,22.80
2022-11-29T03:38:04.449Z,21.63
2022-11-29T03:43:15.939Z,21.55
2022-11-29T03:48:29.808Z,22.03
2022-11-29T03:53:55.319Z,21.00
2022-11-29T03:59:24.193Z,20.93
2022-11-29T04:05:08.546Z,22.30
2022-11-29T04:10:28.462Z,21.17
2022-11-29T04:15:57.671Z,19.57
2022-11-29T04:21:26.036Z,22.77
2022-11-29T04:26:43.087Z,23.70
2022-11-29T04:32:02.788Z,23.95
2022-11-29T04:37:32.034Z,23.90
2022-11-29T04:43:04.458Z,24.00
2022-11-29T04:48:24.456Z,22.83
2022-11-29T04:53:35.540Z,25.10
2022-11-29T04:58:46.722Z,24.90
2022-11-29T05:04:17.055Z,22.87
2022-11-29T05:09:46.346Z,25.47
2022-11-29T05:15:23.002Z,25.80
2022-11-29T05:21:08.636Z,21.43
2022-11-29T05:26:22.619Z,22.90
2022-11-29T05:31:51.786Z,21.20
2022-11-29T05:37:14.450Z,24.87
2022-11-29T05:42:50.858Z,24.23
2022-11-29T05:48:07.160Z,23.67
2022-11-29T05:53:20.800Z,24.87
2022-11-29T05:58:40.244Z,23.67
2022-11-29T06:04:29.032Z,25.47
2022-11-29T06:09:43.818Z,25.30
2022-11-29T06:15:26.791Z,25.00
2022-11-29T06:21:00.227Z,22.90
2022-11-29T06:26:20.302Z,24.27
2022-11-29T06:31:37.745Z,23.80
2022-11-29T06:36:54.660Z,24.30
2022-11-29T06:42:02.712Z,23.87
2022-11-29T06:47:15.699Z,23.33
2022-11-29T06:52:43.152Z,24.63
2022-11-29T06:58:09.002Z,24.70
2022-11-29T07:03:45.963Z,27.37
2022-11-29T07:08:58.528Z,25.63
2022-11-29T07:14:06.353Z,26.43
2022-11-29T07:19:34.241Z,25.63
2022-11-29T07:24:51.236Z,25.45
2022-11-29T07:30:07.827Z,26.48
2022-11-29T07:35:24.604Z,27.47
2022-11-29T07:40:53.287Z,27.58
2022-11-29T07:46:01.003Z,27.43
2022-11-29T07:51:09.817Z,28.30
2022-11-29T07:56:17.475Z,26.40
2022-11-29T08:01:25.258Z,27.00
2022-11-29T08:06:33.265Z,26.37
2022-11-29T08:11:42.143Z,27.27
2022-11-29T08:16:49.952Z,27.97
2022-11-29T08:21:58.099Z,29.63
2022-11-29T08:27:06.090Z,26.77
2022-11-29T08:32:13.835Z,24.73
2022-11-29T08:37:21.491Z,28.60
2022-11-29T08:42:29.510Z,26.63
2022-11-29T08:47:38.152Z,26.63
2022-11-29T08:53:06.401Z,24.00
2022-11-29T08:58:15.075Z,26.53
2022-11-29T09:03:41.214Z,27.53
2022-11-29T09:08:48.831Z,27.70
2022-11-29T09:13:59.450Z,27.17
2022-11-29T09:19:07.977Z,27.87
2022-11-29T09:24:17.570Z,24.57
2022-11-29T09:29:25.309Z,25.33
2022-11-29T09:34:33.645Z,26.47
2022-11-29T09:39:42.132Z,25.03
2022-11-29T09:45:07.823Z,25.70
2022-11-29T09:50:22.054Z,24.77
2022-11-29T09:55:38.606Z,24.67
2022-11-29T10:00:49.706Z,23.95
2022-11-29T10:06:03.417Z,23.57
2022-11-29T10:11:17.376Z,22.33
2022-11-29T10:16:38.376Z,25.50
2022-11-29T10:21:48.450Z,21.80
2022-11-29T10:26:56.393Z,22.30
2022-11-29T10:32:10.285Z,23.13
2022-11-29T10:37:18.622Z,22.90
2022-11-29T10:42:45.485Z,24.57
2022-11-29T10:47:53.532Z,22.63
2022-11-29T10:53:05.691Z,24.50
2022-11-29T10:58:16.777Z,23.87
2022-11-29T11:03:42.040Z,25.47
2022-11-29T11:08:53.161Z,25.13
2022-11-29T11:14:09.540Z,23.00
2022-11-29T11:19:29.413Z,21.87
2022-11-29T11:24:40.223Z,23.10
2022-11-29T11:29:48.130Z,21.50
2022-11-29T11:34:58.124Z,19.80
2022-11-29T11:40:29.004Z,21.70
2022-11-29T11:45:39.640Z,20.67
2022-11-29T11:50:57.504Z,21.27
2022-11-29T11:56:12.377Z,20.13
2022-11-29T12:01:33.851Z,20.63
2022-11-29T12:06:53.803Z,19.07
2022-11-29T12:12:05.239Z,20.30
2022-11-29T12:17:20.398Z,19.23
2022-11-29T12:22:29.836Z,21.40
2022-11-29T12:27:37.734Z,20.13
2022-11-29T12:33:00.499Z,21.00
2022-11-29T12:38:22.927Z,21.33
2022-11-29T12:43:55.001Z,20.77
2022-11-29T12:49:09.037Z,22.80
2022-11-29T12:54:28.318Z,23.57
2022-11-29T12:59:54.687Z,22.20
2022-11-29T13:05:14.442Z,22.03
2022-11-29T13:10:31.437Z,20.43
2022-11-29T13:15:45.826Z,22.25
2022-11-29T13:21:14.568Z,22.90
2022-11-29T13:26:23.851Z,24.03
2022-11-29T13:31:33.747Z,23.23
2022-11-29T13:36:53.735Z,22.67
2022-11-29T13:42:07.684Z,20.93
2022-11-29T13:47:17.874Z,21.60
2022-11-29T13:52:35.037Z,19.93
2022-11-29T13:58:19.228Z,18.55
2022-11-29T14:03:41.050Z,18.07
2022-11-29T14:14:14.500Z,18.93
2022-11-29T14:19:32.820Z,16.07
2022-11-29T14:24:40.141Z,17.10
2022-11-29T14:29:55.464Z,16.77
2022-11-29T14:35:13.052Z,19.23
2022-11-29T14:40:33.681Z,24.95
2022-11-29T14:45:41.330Z,29.40
2022-11-29T14:50:49.117Z,35.93
2022-11-29T14:56:00.114Z,34.43
2022-11-29T15:01:10.592Z,36.13
2022-11-29T15:06:23.680Z,32.37
2022-11-29T15:11:53.348Z,34.20
2022-11-29T15:17:28.753Z,31.30
2022-11-29T15:22:54.066Z,32.80
2022-11-29T15:28:06.828Z,33.33
2022-11-29T15:33:26.184Z,31.67
2022-11-29T15:38:46.237Z,33.63
2022-11-29T15:43:56.982Z,35.13
2022-11-29T15:49:22.135Z,32.77
2022-11-29T15:54:38.190Z,34.10
2022-11-29T15:59:51.047Z,34.43
2022-11-29T16:05:01.419Z,32.50
2022-11-29T16:10:24.726Z,39.97
2022-11-29T16:15:37.527Z,32.30
2022-11-29T16:20:45.906Z,31.20
2022-11-29T16:26:09.783Z,31.73
2022-11-29T16:31:22.395Z,31.03
2022-11-29T16:36:30.916Z,34.17
2022-11-29T16:41:39.382Z,37.50
2022-11-29T16:46:47.304Z,36.33
2022-11-29T16:51:55.061Z,34.63
2022-11-29T16:57:06.599Z,30.43
2022-11-29T17:02:15.048Z,30.47
2022-11-29T17:07:28.498Z,30.20
2022-11-29T17:12:38.084Z,30.13
2022-11-29T17:17:46.303Z,27.90
2022-11-29T17:22:54.378Z,29.07
2022-11-29T17:28:03.013Z,31.47
2022-11-29T17:33:11.911Z,29.13
2022-11-29T17:38:21.460Z,31.43
2022-11-29T17:43:29.173Z,29.83
2022-11-29T17:48:39.890Z,31.43
2022-11-29T17:53:47.590Z,32.63
2022-11-29T17:58:56.115Z,31.40
2022-11-29T18:04:04.920Z,29.57
2022-11-29T18:09:13.088Z,32.53
2022-11-29T18:14:24.649Z,29.60
2022-11-29T18:19:34.491Z,29.50
2022-11-29T18:24:44.395Z,30.13
2022-11-29T18:29:52.507Z,32.93
2022-11-29T18:35:01.768Z,31.47
2022-11-29T18:40:15.015Z,31.07
2022-11-29T18:45:22.761Z,32.23
2022-11-29T18:50:31.921Z,31.57
2022-11-29T18:55:40.013Z,32.80
2022-11-29T19:00:48.071Z,32.33
2022-11-29T19:05:56.908Z,33.87
2022-11-29T19:11:09.439Z,39.07
2022-11-29T19:16:18.455Z,39.00
2022-11-29T19:21:26.787Z,42.07
2022-11-29T19:26:35.168Z,35.33
2022-11-29T19:31:43.202Z,34.77
2022-11-29T19:36:52.284Z,34.37
2022-11-29T19:42:01.818Z,32.90
2022-11-29T19:47:09.732Z,35.80
2022-11-29T19:52:17.703Z,36.87
2022-11-29T19:57:26.956Z,40.20
2022-11-29T20:02:34.845Z,42.93
2022-11-29T20:07:42.966Z,37.37
2022-11-29T20:12:51.445Z,39.23
2022-11-29T20:17:59.285Z,38.60
2022-11-29T20:23:08.127Z,38.30
2022-11-29T20:28:16.491Z,36.17
2022-11-29T20:33:25.928Z,34.40
2022-11-29T20:38:51.811Z,32.43
2022-11-29T20:44:01.046Z,41.27
2022-11-29T20:49:09.839Z,35.63
2022-11-29T20:54:18.710Z,36.80
2022-11-29T20:59:26.587Z,36.00
2022-11-29T21:04:34.583Z,37.10
2022-11-29T21:09:42.480Z,36.27
2022-11-29T21:14:50.512Z,34.07
2022-11-29T21:19:58.262Z,37.73
2022-11-29T21:25:12.473Z,35.67
2022-11-29T21:30:27.630Z,37.00
2022-11-29T21:35:39.248Z,35.27
2022-11-29T21:40:46.935Z,35.63
2022-11-29T21:45:56.462Z,35.40
2022-11-29T21:51:07.706Z,36.53
2022-11-29T21:56:15.358Z,34.90
2022-11-29T22:01:23.504Z,37.97
2022-11-29T22:06:32.762Z,37.80
2022-11-29T22:11:40.416Z,35.00
2022-11-29T22:16:59.158Z,35.67
2022-11-29T22:22:09.590Z,35.87
2022-11-29T22:27:19.047Z,38.97
2022-11-29T22:32:26.773Z,36.83
2022-11-29T22:37:34.827Z,35.90
2022-11-29T22:42:43.448Z,37.57
2022-11-29T22:47:51.453Z,36.10
2022-11-29T22:52:59.720Z,36.73
2022-11-29T22:58:07.339Z,39.23
2022-11-29T23:03:14.987Z,31.10
2022-11-29T23:08:22.640Z,36.37
2022-11-29T23:13:30.486Z,37.47
2022-11-29T23:18:40.696Z,36.90
2022-11-29T23:23:54.535Z,39.20
2022-11-29T23:29:00.492Z,37.17
2022-11-29T23:34:08.490Z,39.17
2022-11-29T23:39:19.691Z,39.50
2022-11-29T23:44:27.693Z,37.30
2022-11-29T23:49:37.269Z,34.13
2022-11-29T23:54:45.065Z,37.40
2022-11-29T23:59:52.924Z,37.37
